Hemby Bridge, North Carolina
Current Conditions -  °F | °C
As of 10:53 AM on Friday 21 Nov 2014 (Local Time) from KEQY Reporting Station
Clear Clear  
Wind Chill: 50°   Ceiling: Unl
Heat Index: 50°   Visibility: 10mi
Dew Point: 23°   Wind: 9mph
Humidity: 35%   Direction: 50°NE
Pressure: 30.4"   Gusts: NA
Location:  35.0963°N, 80.6145°W
Report Text: KEQY 211553Z AUTO 05008KT 10SM CLR 10/M05 A3040 RMK AO2 SLP307 T01001050
Loading
Personal Weather Stations






























Interactive Weather Map New forecast layout! Learn more

10-Day Weather Forecast

Advertisements
Track Severe Weather on mobile